Terminal Aerodrome Forecast
Issued by NWS

Home | Current Version | Previous Version | Text Only | Print | Product List | Glossary On
Versions: 1 2 3 4 5 6 7 8 9 10 11 12 13 14 15 16 17 18 19 20 21 22 23 24 25 26 27 28 29 30 31 32
056
FTUS46 KLOX 261207 AAB
TAFOXR
TAF AMD
KOXR 261207Z 2612/2712 VRB03KT P6SM OVC045
     FM261600 24006KT P6SM BKN025 OVC045
     FM262000 24008KT P6SM SCT025 SCT040
     FM270200 28006KT P6SM BKN025
     FM270500 28006KT P6SM OVC030
     FM270900 VRB03KT P6SM OVC035=

USA.gov is the U.S. government's official web portal to all federal, state and local government web resources and services.